createdAt,value
2023-05-22T00:02:05.208Z,99.90
2023-05-22T00:04:34.343Z,99.90
2023-05-22T00:07:05.234Z,99.90
2023-05-22T00:09:34.378Z,99.90
2023-05-22T00:12:03.289Z,99.90
2023-05-22T00:14:32.352Z,99.90
2023-05-22T00:17:01.413Z,99.90
2023-05-22T00:19:30.720Z,99.90
2023-05-22T00:22:00.445Z,99.90
2023-05-22T00:24:32.226Z,99.90
2023-05-22T00:27:01.412Z,99.90
2023-05-22T00:29:30.405Z,99.90
2023-05-22T00:31:59.779Z,99.90
2023-05-22T00:34:29.584Z,99.90
2023-05-22T00:36:59.021Z,99.90
2023-05-22T00:39:28.290Z,99.90
2023-05-22T00:41:58.757Z,99.90
2023-05-22T00:44:28.457Z,99.90
2023-05-22T00:46:58.131Z,99.90
2023-05-22T00:49:27.618Z,99.90
2023-05-22T00:51:58.712Z,99.90
2023-05-22T00:54:27.727Z,99.90
2023-05-22T00:57:00.951Z,99.90
2023-05-22T00:59:30.984Z,99.90
2023-05-22T01:02:01.991Z,99.90
2023-05-22T01:04:33.267Z,99.90
2023-05-22T01:07:03.585Z,99.90
2023-05-22T01:09:32.614Z,99.90
2023-05-22T01:12:11.672Z,99.90
2023-05-22T01:14:49.132Z,99.90
2023-05-22T01:17:35.106Z,99.90
2023-05-22T01:20:17.162Z,99.90
2023-05-22T01:23:13.469Z,99.90
2023-05-22T01:26:15.290Z,99.90
2023-05-22T01:29:12.260Z,99.90
2023-05-22T01:31:44.548Z,99.90
2023-05-22T01:34:15.317Z,99.90
2023-05-22T01:36:48.188Z,99.90
2023-05-22T01:39:17.707Z,99.90
2023-05-22T01:41:48.715Z,99.90
2023-05-22T01:44:18.172Z,99.90
2023-05-22T01:46:48.645Z,99.90
2023-05-22T01:49:18.250Z,99.90
2023-05-22T01:51:54.738Z,99.90
2023-05-22T01:54:29.129Z,99.90
2023-05-22T01:57:05.875Z,99.90
2023-05-22T01:59:38.249Z,99.90
2023-05-22T02:02:12.318Z,99.90
2023-05-22T02:04:46.882Z,99.90
2023-05-22T02:07:19.599Z,99.90
2023-05-22T02:09:50.440Z,99.90
2023-05-22T02:12:19.859Z,99.90
2023-05-22T02:14:49.349Z,99.90
2023-05-22T02:17:20.596Z,99.90
2023-05-22T02:19:49.833Z,99.90
2023-05-22T02:22:18.893Z,99.90
2023-05-22T02:24:50.345Z,99.90
2023-05-22T02:27:19.630Z,99.90
2023-05-22T02:29:48.639Z,99.90
2023-05-22T02:32:19.675Z,99.90
2023-05-22T02:34:51.129Z,99.90
2023-05-22T02:37:21.177Z,99.90
2023-05-22T02:39:51.042Z,99.90
2023-05-22T02:42:20.625Z,99.90
2023-05-22T02:44:50.174Z,99.90
2023-05-22T02:47:20.853Z,99.90
2023-05-22T02:49:49.867Z,99.90
2023-05-22T02:52:18.831Z,99.90
2023-05-22T02:54:47.647Z,99.90
2023-05-22T02:57:16.650Z,99.90
2023-05-22T02:59:46.495Z,99.90
2023-05-22T03:02:16.875Z,99.90
2023-05-22T03:04:47.770Z,99.90
2023-05-22T03:07:17.202Z,99.90
2023-05-22T03:09:46.014Z,99.90
2023-05-22T03:12:15.141Z,99.90
2023-05-22T03:14:44.679Z,99.90
2023-05-22T03:17:14.182Z,99.90
2023-05-22T03:19:43.387Z,99.90
2023-05-22T03:22:14.472Z,99.90
2023-05-22T03:24:43.837Z,99.90
2023-05-22T03:27:16.466Z,99.90
2023-05-22T03:29:46.517Z,99.90
2023-05-22T03:32:16.471Z,99.90
2023-05-22T03:34:46.372Z,99.90
2023-05-22T03:37:16.630Z,99.90
2023-05-22T03:39:46.150Z,99.90
2023-05-22T03:42:33.086Z,99.90
2023-05-22T03:45:02.029Z,99.90
2023-05-22T03:47:30.996Z,99.90
2023-05-22T03:49:59.811Z,99.90
2023-05-22T03:52:31.488Z,99.90
2023-05-22T03:55:00.901Z,99.90
2023-05-22T03:57:29.791Z,99.90
2023-05-22T04:00:03.331Z,99.90
2023-05-22T04:02:45.491Z,99.90
2023-05-22T04:05:15.237Z,99.90
2023-05-22T04:07:47.649Z,99.90
2023-05-22T04:10:16.685Z,99.90
2023-05-22T04:12:45.785Z,99.90
2023-05-22T04:15:15.481Z,99.90
2023-05-22T04:17:44.544Z,99.90
2023-05-22T04:20:14.375Z,99.90
2023-05-22T04:22:43.658Z,99.90
2023-05-22T04:25:14.163Z,99.90
2023-05-22T04:27:43.189Z,99.90
2023-05-22T04:30:12.746Z,99.90
2023-05-22T04:32:41.990Z,99.90
2023-05-22T04:35:12.888Z,99.90
2023-05-22T05:27:18.239Z,99.90
2023-05-22T05:29:47.488Z,99.90
2023-05-22T05:32:32.244Z,99.90
2023-05-22T05:35:14.948Z,99.90
2023-05-22T05:38:07.100Z,99.90
2023-05-22T05:40:37.714Z,99.90
2023-05-22T05:43:10.162Z,99.90
2023-05-22T05:45:39.996Z,99.90
2023-05-22T05:48:09.573Z,99.90
2023-05-22T05:50:43.206Z,99.90
2023-05-22T05:53:13.352Z,99.90
2023-05-22T05:55:46.861Z,99.90
2023-05-22T05:58:18.062Z,99.90
2023-05-22T06:01:01.424Z,99.90
2023-05-22T06:03:31.070Z,99.90
2023-05-22T06:06:12.280Z,99.90
2023-05-22T06:09:06.830Z,99.90
2023-05-22T06:11:48.716Z,99.90
2023-05-22T06:14:18.923Z,99.90
2023-05-22T06:16:49.019Z,99.90
2023-05-22T06:19:19.934Z,99.90
2023-05-22T06:21:50.288Z,99.90
2023-05-22T06:24:20.980Z,99.90
2023-05-22T06:26:49.774Z,99.90
2023-05-22T06:29:20.549Z,99.90
2023-05-22T06:31:52.596Z,99.90
2023-05-22T06:34:23.909Z,99.90
2023-05-22T06:36:53.228Z,99.90
2023-05-22T06:39:27.542Z,99.90
2023-05-22T06:42:14.772Z,99.90
2023-05-22T06:45:12.196Z,99.90
2023-05-22T06:47:54.314Z,99.90
2023-05-22T06:50:23.767Z,99.90
2023-05-22T06:52:52.881Z,99.90
2023-05-22T06:55:22.944Z,99.90
2023-05-22T06:58:02.984Z,99.90
2023-05-22T07:00:36.428Z,99.90
2023-05-22T07:03:12.387Z,99.90
2023-05-22T07:06:06.929Z,99.90
2023-05-22T07:08:36.659Z,99.90
2023-05-22T07:11:07.154Z,99.90
2023-05-22T07:13:36.768Z,99.90
2023-05-22T07:16:07.765Z,99.90
2023-05-22T07:18:37.325Z,99.90
2023-05-22T07:21:06.680Z,99.90
2023-05-22T07:23:36.087Z,99.90
2023-05-22T07:26:04.899Z,99.90
2023-05-22T07:28:38.431Z,99.90
2023-05-22T07:31:16.623Z,99.90
2023-05-22T07:33:46.936Z,98.90
2023-05-22T07:36:17.006Z,99.90
2023-05-22T07:38:45.813Z,99.20
2023-05-22T07:41:15.308Z,99.00
2023-05-22T07:43:44.243Z,98.90
2023-05-22T07:46:18.296Z,93.70
2023-05-22T07:48:56.693Z,95.20
2023-05-22T07:51:32.563Z,97.90
2023-05-22T07:54:02.049Z,93.90
2023-05-22T07:56:32.850Z,97.60
2023-05-22T07:59:02.179Z,99.90
2023-05-22T08:01:32.492Z,93.80
2023-05-22T08:04:01.369Z,96.20
2023-05-22T08:06:31.164Z,95.50
2023-05-22T08:09:01.185Z,97.80
2023-05-22T08:11:30.136Z,95.80
2023-05-22T08:13:58.965Z,93.70
2023-05-22T08:16:27.596Z,91.00
2023-05-22T08:18:57.984Z,89.40
2023-05-22T08:21:26.656Z,90.90
2023-05-22T08:23:55.170Z,81.90
2023-05-22T08:26:27.245Z,79.20
2023-05-22T08:28:56.179Z,83.90
2023-05-22T08:31:24.819Z,82.10
2023-05-22T08:33:53.582Z,83.00
2023-05-22T08:36:24.802Z,76.60
2023-05-22T08:38:53.326Z,71.40
2023-05-22T08:41:22.080Z,74.70
2023-05-22T08:43:51.023Z,74.40
2023-05-22T08:46:21.542Z,77.00
2023-05-22T08:48:53.055Z,70.80
2023-05-22T08:51:26.675Z,71.10
2023-05-22T08:53:58.100Z,68.00
2023-05-22T08:56:29.469Z,60.10
2023-05-22T08:58:59.873Z,61.60
2023-05-22T09:01:29.880Z,66.70
2023-05-22T09:04:02.302Z,66.70
2023-05-22T09:06:32.353Z,54.80
2023-05-22T09:09:01.618Z,54.40
2023-05-22T09:11:30.349Z,56.90
2023-05-22T09:14:08.941Z,56.50
2023-05-22T09:16:47.883Z,52.70
2023-05-22T09:19:17.748Z,54.70
2023-05-22T09:21:48.126Z,55.70
2023-05-22T09:24:17.595Z,51.30
2023-05-22T09:26:46.421Z,51.10
2023-05-22T09:29:15.226Z,49.80
2023-05-22T09:31:44.811Z,52.80
2023-05-22T09:34:19.147Z,51.10
2023-05-22T09:36:50.388Z,48.40
2023-05-22T09:39:19.392Z,51.20
2023-05-22T09:41:48.677Z,52.50
2023-05-22T09:44:18.583Z,47.00
2023-05-22T09:46:48.828Z,45.50
2023-05-22T09:49:18.105Z,50.60
2023-05-22T09:51:50.883Z,49.10
2023-05-22T09:54:22.315Z,50.50
2023-05-22T09:56:52.206Z,47.30
2023-05-22T09:59:26.364Z,50.70
2023-05-22T10:01:55.832Z,48.80
2023-05-22T10:04:25.369Z,48.30
2023-05-22T10:06:59.894Z,46.90
2023-05-22T10:09:36.437Z,45.10
2023-05-22T10:12:08.025Z,49.00
2023-05-22T10:14:37.908Z,50.10
2023-05-22T10:17:07.830Z,48.10
2023-05-22T10:19:39.717Z,45.30
2023-05-22T10:22:15.058Z,49.00
2023-05-22T10:24:44.520Z,48.40
2023-05-22T10:27:14.041Z,47.60
2023-05-22T10:29:51.136Z,48.20
2023-05-22T10:32:28.254Z,46.90
2023-05-22T10:35:10.085Z,49.10
2023-05-22T10:37:47.324Z,48.60
2023-05-22T10:40:23.110Z,48.20
2023-05-22T10:42:51.936Z,49.10
2023-05-22T10:45:21.423Z,49.70
2023-05-22T10:47:50.941Z,50.30
2023-05-22T10:50:20.198Z,50.00
2023-05-22T10:52:50.854Z,53.60
2023-05-22T10:55:24.982Z,55.10
2023-05-22T10:57:57.717Z,50.80
2023-05-22T11:00:31.218Z,49.60
2023-05-22T11:03:17.356Z,48.80
2023-05-22T11:05:55.462Z,49.40
2023-05-22T11:08:51.667Z,47.60
2023-05-22T11:11:21.479Z,46.80
2023-05-22T11:13:54.352Z,50.30
2023-05-22T11:16:23.828Z,50.20
2023-05-22T11:19:18.603Z,49.20
2023-05-22T11:21:51.633Z,46.50
2023-05-22T11:24:22.448Z,51.70
2023-05-22T11:27:07.023Z,46.20
2023-05-22T11:29:38.724Z,47.80
2023-05-22T11:32:10.867Z,46.40
2023-05-22T11:34:41.668Z,47.10
2023-05-22T11:37:11.622Z,49.50
2023-05-22T11:39:42.673Z,46.60
2023-05-22T11:42:11.487Z,49.20
2023-05-22T11:44:43.801Z,46.20
2023-05-22T11:47:13.586Z,49.10
2023-05-22T11:49:43.519Z,48.80
2023-05-22T11:52:13.104Z,45.90
2023-05-22T11:54:48.453Z,45.50
2023-05-22T11:57:18.121Z,47.20
2023-05-22T11:59:47.976Z,44.60
2023-05-22T12:02:18.386Z,47.50
2023-05-22T12:04:48.107Z,45.90
2023-05-22T12:07:17.227Z,47.90
2023-05-22T12:09:48.438Z,45.00
2023-05-22T12:12:19.430Z,45.10
2023-05-22T12:14:50.781Z,45.20
2023-05-22T12:17:20.174Z,46.90
2023-05-22T12:19:50.100Z,45.40
2023-05-22T12:22:19.738Z,44.80
2023-05-22T12:24:54.506Z,42.70
2023-05-22T12:27:23.945Z,45.20
2023-05-22T12:29:53.508Z,44.80
2023-05-22T12:32:25.855Z,44.20
2023-05-22T12:34:55.298Z,41.50
2023-05-22T12:37:26.315Z,39.90
2023-05-22T12:39:57.988Z,40.70
2023-05-22T12:42:26.988Z,42.20
2023-05-22T12:44:57.764Z,42.30
2023-05-22T12:47:27.362Z,40.70
2023-05-22T12:49:56.464Z,40.90
2023-05-22T12:52:25.292Z,40.60
2023-05-22T12:54:54.080Z,42.50
2023-05-22T12:57:24.734Z,44.00
2023-05-22T12:59:53.687Z,45.80
2023-05-22T13:02:22.543Z,45.30
2023-05-22T13:04:51.580Z,46.30
2023-05-22T13:07:20.673Z,46.00
2023-05-22T13:09:49.531Z,47.70
2023-05-22T13:12:19.632Z,46.10
2023-05-22T13:14:50.432Z,42.80
2023-05-22T13:17:19.454Z,46.80
2023-05-22T13:19:48.563Z,45.50
2023-05-22T13:22:17.637Z,44.70
2023-05-22T13:24:46.699Z,45.90
2023-05-22T13:27:17.969Z,44.10
2023-05-22T13:29:47.055Z,47.20
2023-05-22T13:32:17.132Z,43.90
2023-05-22T13:34:46.412Z,47.10
2023-05-22T13:37:15.356Z,42.30
2023-05-22T13:39:46.213Z,41.80
2023-05-22T13:42:16.241Z,45.10
2023-05-22T13:44:45.763Z,44.80
2023-05-22T13:47:15.114Z,41.30
2023-05-22T13:49:45.459Z,42.40
2023-05-22T13:52:14.135Z,43.80
2023-05-22T13:54:43.378Z,42.00
2023-05-22T13:57:12.460Z,42.20
2023-05-22T13:59:41.823Z,43.90
2023-05-22T14:02:11.053Z,44.10
2023-05-22T14:04:40.403Z,44.40
2023-05-22T14:07:11.168Z,43.40
2023-05-22T14:09:40.521Z,44.30
2023-05-22T14:12:09.915Z,43.40
2023-05-22T14:14:38.780Z,44.20
2023-05-22T14:17:09.016Z,45.10
2023-05-22T14:19:38.879Z,43.70
2023-05-22T14:22:08.056Z,45.80
2023-05-22T14:24:38.938Z,44.60
2023-05-22T14:27:08.627Z,42.90
2023-05-22T14:29:38.087Z,43.80
2023-05-22T14:32:07.763Z,46.10
2023-05-22T14:34:37.121Z,45.30
2023-05-22T14:37:06.210Z,45.60
2023-05-22T14:39:35.418Z,44.60
2023-05-22T14:42:06.707Z,43.60
2023-05-22T14:44:35.908Z,44.30
2023-05-22T14:47:06.533Z,45.40
2023-05-22T14:49:36.053Z,47.40
2023-05-22T14:52:04.783Z,46.50
2023-05-22T14:54:37.570Z,45.00
2023-05-22T14:57:08.507Z,44.50
2023-05-22T14:59:37.887Z,45.80
2023-05-22T15:02:08.522Z,47.20
2023-05-22T15:04:37.926Z,44.90
2023-05-22T15:07:07.681Z,46.50
2023-05-22T15:09:36.833Z,48.90
2023-05-22T15:12:06.602Z,47.70
2023-05-22T15:14:37.809Z,47.30
2023-05-22T15:17:07.467Z,49.80
2023-05-22T15:19:36.428Z,48.40
2023-05-22T15:22:18.786Z,47.00
2023-05-22T15:24:49.774Z,48.00
2023-05-22T15:27:18.604Z,47.00
2023-05-22T15:29:48.829Z,48.50
2023-05-22T15:32:18.528Z,51.20
2023-05-22T15:34:47.888Z,48.40
2023-05-22T15:37:17.162Z,47.20
2023-05-22T15:39:47.475Z,48.70
2023-05-22T15:42:16.871Z,49.00
2023-05-22T15:44:45.996Z,49.10
2023-05-22T15:47:17.096Z,49.40
2023-05-22T15:49:46.192Z,48.10
2023-05-22T15:52:15.341Z,50.70
2023-05-22T15:54:44.326Z,49.60
2023-05-22T15:57:13.780Z,50.20
2023-05-22T15:59:42.953Z,48.90
2023-05-22T16:02:12.041Z,48.50
2023-05-22T16:04:43.696Z,50.60
2023-05-22T16:07:12.840Z,48.60
2023-05-22T16:09:43.958Z,51.60
2023-05-22T16:12:12.951Z,50.40
2023-05-22T16:14:42.585Z,51.60
2023-05-22T16:17:11.833Z,51.60
2023-05-22T16:19:42.821Z,51.20
2023-05-22T16:22:11.974Z,52.00
2023-05-22T16:24:41.256Z,52.40
2023-05-22T16:27:10.440Z,54.00
2023-05-22T16:29:39.723Z,52.80
2023-05-22T16:32:09.112Z,53.00
2023-05-22T16:34:41.200Z,54.50
2023-05-22T16:37:14.026Z,55.40
2023-05-22T16:39:49.117Z,55.90
2023-05-22T16:42:18.551Z,56.60
2023-05-22T16:44:47.626Z,55.50
2023-05-22T16:47:16.747Z,56.60
2023-05-22T16:49:45.643Z,58.10
2023-05-22T16:52:17.321Z,58.80
2023-05-22T16:54:47.187Z,58.70
2023-05-22T16:57:16.519Z,59.90
2023-05-22T17:04:44.493Z,58.90
2023-05-22T17:07:13.538Z,59.30
2023-05-22T17:09:43.976Z,60.50
2023-05-22T17:12:15.296Z,60.40
2023-05-22T17:17:14.177Z,60.60
2023-05-22T17:19:43.388Z,60.30
2023-05-22T17:22:12.299Z,60.50
2023-05-22T17:24:43.059Z,61.70
2023-05-22T17:29:41.881Z,61.80
2023-05-22T17:32:10.807Z,61.80
2023-05-22T17:34:42.802Z,62.20
2023-05-22T17:37:11.757Z,75.10
2023-05-22T17:42:12.248Z,65.80
2023-05-22T17:44:42.938Z,63.40
2023-05-22T17:47:13.749Z,64.50
2023-05-22T17:52:13.825Z,63.40
2023-05-22T17:54:43.245Z,64.10
2023-05-22T17:57:14.740Z,64.20
2023-05-22T17:59:44.052Z,65.60
2023-05-22T18:02:12.894Z,65.60
2023-05-22T18:04:53.656Z,65.80
2023-05-22T18:07:41.393Z,66.90
2023-05-22T18:10:17.873Z,67.70
2023-05-22T18:12:49.190Z,67.50
2023-05-22T18:15:19.103Z,78.90
2023-05-22T18:17:48.238Z,79.20
2023-05-22T18:27:48.829Z,86.60
2023-05-22T18:30:19.052Z,70.60
2023-05-22T18:32:48.670Z,96.80
2023-05-22T18:35:18.026Z,72.60
2023-05-22T18:37:47.636Z,75.00
2023-05-22T18:40:16.967Z,73.80
2023-05-22T18:42:48.229Z,76.70
2023-05-22T18:57:45.986Z,78.40
2023-05-22T19:00:17.745Z,79.60
2023-05-22T19:02:47.759Z,80.90
2023-05-22T19:05:19.470Z,91.30
2023-05-22T19:07:49.443Z,86.00
2023-05-22T19:10:19.501Z,83.80
2023-05-22T19:12:52.442Z,99.90
2023-05-22T19:40:25.924Z,95.70
2023-05-22T19:42:55.308Z,96.00
2023-05-22T19:47:58.399Z,98.50
2023-05-22T19:50:27.923Z,98.70
2023-05-22T19:52:57.326Z,99.90
2023-05-22T19:57:56.436Z,99.90
2023-05-22T20:00:29.125Z,99.90
2023-05-22T20:03:00.449Z,99.90
2023-05-22T20:05:30.051Z,99.90
2023-05-22T20:08:00.331Z,99.90
2023-05-22T20:10:30.773Z,99.90
2023-05-22T20:13:01.396Z,99.90
2023-05-22T20:18:03.213Z,99.90
2023-05-22T20:23:02.275Z,99.90
2023-05-22T20:25:31.763Z,99.90
2023-05-22T20:28:01.183Z,99.90
2023-05-22T20:30:30.426Z,99.90
2023-05-22T20:33:00.979Z,99.90
2023-05-22T20:35:30.997Z,99.90
2023-05-22T20:38:04.593Z,99.90
2023-05-22T20:40:34.303Z,99.90
2023-05-22T20:48:07.101Z,99.90
2023-05-22T20:50:39.104Z,99.90
2023-05-22T21:00:41.985Z,99.90
2023-05-22T21:03:13.502Z,99.90
2023-05-22T21:08:12.642Z,99.90
2023-05-22T21:10:41.761Z,99.90
2023-05-22T21:15:40.457Z,99.90
2023-05-22T21:18:12.364Z,99.90
2023-05-22T21:25:40.284Z,99.90
2023-05-22T22:05:41.718Z,99.90
